Rio Bravo — WDF5037 — position and weather

sailwx.info

Track history (hours):
 
Tides and Currents Weather Stations Pressure Air Temp Water Temp Dewpoint Dewpoint Depression Visibility Wind Speed Wind Dir Waves Ship Positions

Rio Bravo

Owner: MOBRO Marine Inc, Green Cove Springs, FL. More information available from US FCC via Universal Licensing System and Coast Guard Vessel Documentation Center.

Last reported at 2018-Jan-28 21:18 UTC. Time now 2018-Feb-22 16:46 UTC.
Position N 25°43' W 079°43'.
Warning: this ship's position is 24 days out of date.

Length 31 m; draft 4.5 m.

Type: Tow > 200 m length. MMSI: 367458640.

Date/timePositionNaut miles runAvg speedWind from/ knotsBaromVisibWave heightAir tempDewpointWater temp
2018-Jan-28 21:18N 25°43' W 079°43'1 3.8
2018-Jan-28 21:00N 25°43' W 079°44'2 3.6
2018-Jan-28 20:30N 25°44' W 079°46'2 3.5
2018-Jan-28 20:00N 25°44' W 079°48'2 3.1
2018-Jan-28 19:30N 25°45' W 079°49'2 3.1
2018-Jan-28 19:00N 25°45' W 079°51'1 2.9
2018-Jan-28 18:30N 25°45' W 079°52'1 2.6
2018-Jan-28 18:00N 25°46' W 079°54'1 2.7
2018-Jan-28 17:30N 25°46' W 079°55'1 2.4
2018-Jan-28 17:00N 25°46' W 079°57'1 2.4
2018-Jan-28 16:30N 25°47' W 079°58'1 1.8
2018-Jan-28 16:00N 25°48' W 079°58'1 2.0
2018-Jan-28 15:30N 25°49' W 079°58'1 2.0
2018-Jan-28 15:00N 25°50' W 079°58'1 2.1
2018-Jan-28 14:30N 25°51' W 079°58'1 2.1
2018-Jan-28 14:00N 25°52' W 079°58'1 2.2
2018-Jan-28 13:30N 25°53' W 079°58'1 2.2
2018-Jan-28 13:00N 25°54' W 079°59'1 2.3
2018-Jan-28 12:30N 25°55' W 079°59'1 2.5
2018-Jan-28 12:00N 25°56' W 079°59'1 2.8
2018-Jan-28 11:30N 25°58' W 079°59'1 2.9
2018-Jan-28 11:00N 25°59' W 079°60'2 3.2
2018-Jan-28 10:30N 26°01' W 079°60'2 3.2
2018-Jan-28 10:00N 26°02' W 080°00'2 3.2
2018-Jan-28 09:30N 26°04' W 080°00'1 2.9
2018-Jan-28 09:00N 26°05' W 080°00'2 3.1
2018-Jan-28 08:30N 26°07' W 080°01'2 3.2
2018-Jan-28 08:00N 26°08' W 080°01'2 3.1
2018-Jan-28 07:30N 26°10' W 080°01'2 3.0
2018-Jan-28 07:00N 26°11' W 080°01'2 3.3
2018-Jan-28 06:30N 26°13' W 080°01'2 3.6
2018-Jan-28 05:58N 26°15' W 080°00'36 3.6
2018-Jan-27 19:46N 26°51' W 079°57'1 3.3
2018-Jan-27 19:21N 26°53' W 079°57'1 2.8
2018-Jan-27 19:00N 26°54' W 079°57'1 2.8
2018-Jan-27 18:29N 26°55' W 079°57'3 2.9
2018-Jan-27 17:28N 26°58' W 079°57'2 2.8
2018-Jan-27 16:54N 26°60' W 079°58'1 3.1
2018-Jan-27 16:27N 27°01' W 079°58'1 3.2
2018-Jan-27 16:00N 27°02' W 079°58'  
Track history (hours):
 
Tides and Currents Weather Stations Pressure Air Temp Water Temp Dewpoint Dewpoint Depression Visibility Wind Speed Wind Dir Waves Ship Positions

Rio Bravo

Owner: MOBRO Marine Inc, Green Cove Springs, FL. More information available from US FCC via Universal Licensing System and Coast Guard Vessel Documentation Center.

Last reported at 2018-Jan-28 21:18 UTC. Time now 2018-Feb-22 16:46 UTC.
Position N 25°43' W 079°43'.
Warning: this ship's position is 24 days out of date.

Length 31 m; draft 4.5 m.

Type: Tow > 200 m length. MMSI: 367458640.

Date/timePositionNaut miles runAvg speedWind from/ knotsBaromVisibWave heightAir tempDewpointWater temp
2018-Jan-28 21:18N 25°43' W 079°43'1 3.8
2018-Jan-28 21:00N 25°43' W 079°44'2 3.6
2018-Jan-28 20:30N 25°44' W 079°46'2 3.5
2018-Jan-28 20:00N 25°44' W 079°48'2 3.1
2018-Jan-28 19:30N 25°45' W 079°49'2 3.1
2018-Jan-28 19:00N 25°45' W 079°51'1 2.9
2018-Jan-28 18:30N 25°45' W 079°52'1 2.6
2018-Jan-28 18:00N 25°46' W 079°54'1 2.7
2018-Jan-28 17:30N 25°46' W 079°55'1 2.4
2018-Jan-28 17:00N 25°46' W 079°57'1 2.4
2018-Jan-28 16:30N 25°47' W 079°58'1 1.8
2018-Jan-28 16:00N 25°48' W 079°58'1 2.0
2018-Jan-28 15:30N 25°49' W 079°58'1 2.0
2018-Jan-28 15:00N 25°50' W 079°58'1 2.1
2018-Jan-28 14:30N 25°51' W 079°58'1 2.1
2018-Jan-28 14:00N 25°52' W 079°58'1 2.2
2018-Jan-28 13:30N 25°53' W 079°58'1 2.2
2018-Jan-28 13:00N 25°54' W 079°59'1 2.3
2018-Jan-28 12:30N 25°55' W 079°59'1 2.5
2018-Jan-28 12:00N 25°56' W 079°59'1 2.8
2018-Jan-28 11:30N 25°58' W 079°59'1 2.9
2018-Jan-28 11:00N 25°59' W 079°60'2 3.2
2018-Jan-28 10:30N 26°01' W 079°60'2 3.2
2018-Jan-28 10:00N 26°02' W 080°00'2 3.2
2018-Jan-28 09:30N 26°04' W 080°00'1 2.9
2018-Jan-28 09:00N 26°05' W 080°00'2 3.1
2018-Jan-28 08:30N 26°07' W 080°01'2 3.2
2018-Jan-28 08:00N 26°08' W 080°01'2 3.1
2018-Jan-28 07:30N 26°10' W 080°01'2 3.0
2018-Jan-28 07:00N 26°11' W 080°01'2 3.3
2018-Jan-28 06:30N 26°13' W 080°01'2 3.6
2018-Jan-28 05:58N 26°15' W 080°00'36 3.6
2018-Jan-27 19:46N 26°51' W 079°57'1 3.3
2018-Jan-27 19:21N 26°53' W 079°57'1 2.8
2018-Jan-27 19:00N 26°54' W 079°57'1 2.8
2018-Jan-27 18:29N 26°55' W 079°57'3 2.9
2018-Jan-27 17:28N 26°58' W 079°57'2 2.8
2018-Jan-27 16:54N 26°60' W 079°58'1 3.1
2018-Jan-27 16:27N 27°01' W 079°58'1 3.2
2018-Jan-27 16:00N 27°02' W 079°58'  

Dump ship's entire track history